Time;durP1;ratioP1;P1;durP2;ratioP2;P2;SDS_P1;SDS_P2;PMS_P1;PMS_P2;Temp;Humidity;BMP_temperature;BMP_pressure;BME280_temperature;BME280_humidity;BME280_pressure;Samples;Min_cycle;Max_cycle;Signal;HPM_P1;HPM_P2
2021/03/24 00:00:27;;;;;;;36.20;14.40;;;;;;;1.96;100.00;99129.75;3743332;78;43409;-70
2021/03/24 00:05:35;;;;;;;37.30;15.73;;;;;;;1.92;100.00;99127.75;3708247;78;43680;-70
2021/03/24 00:10:41;;;;;;;37.87;16.60;;;;;;;1.91;100.00;99131.84;3705328;79;43680;-70
2021/03/24 00:15:48;;;;;;;35.90;15.17;;;;;;;1.92;100.00;99122.92;3702801;79;43941;-72
2021/03/24 00:20:54;;;;;;;35.17;15.33;;;;;;;1.93;100.00;99124.16;3723530;79;43588;-71
2021/03/24 00:26:01;;;;;;;37.77;16.83;;;;;;;1.98;100.00;99122.55;3714677;79;44135;-70
2021/03/24 00:31:07;;;;;;;30.77;14.77;;;;;;;2.03;100.00;99116.51;3726209;79;44015;-70
2021/03/24 00:36:13;;;;;;;37.53;16.03;;;;;;;2.06;100.00;99113.65;3717728;79;44052;-69
2021/03/24 00:41:18;;;;;;;31.60;14.67;;;;;;;2.11;100.00;99112.92;3724413;79;43423;-70
2021/03/24 00:46:24;;;;;;;32.47;15.50;;;;;;;2.18;100.00;99115.20;3709406;79;44039;-71
2021/03/24 00:51:30;;;;;;;35.17;15.73;;;;;;;2.20;100.00;99113.31;3716478;79;43972;-71
2021/03/24 00:56:36;;;;;;;33.37;15.53;;;;;;;2.25;100.00;99108.10;3703832;79;44012;-70
2021/03/24 01:01:42;;;;;;;38.33;17.97;;;;;;;2.30;100.00;99113.14;3718835;79;43916;-70
2021/03/24 01:06:48;;;;;;;35.50;16.10;;;;;;;2.31;100.00;99108.20;3794496;77;44464;-70
2021/03/24 01:11:54;;;;;;;34.83;16.03;;;;;;;2.38;100.00;99102.05;3783508;77;43266;-70
2021/03/24 01:17:00;;;;;;;31.30;15.37;;;;;;;2.40;100.00;99102.36;3786147;77;44134;-71
2021/03/24 01:27:10;;;;;;;35.20;16.33;;;;;;;2.55;100.00;99093.05;3959623;73;31087;-21
2021/03/24 01:32:16;;;;;;;37.40;16.13;;;;;;;2.57;100.00;99093.81;3914500;75;43371;-23
2021/03/24 01:37:22;;;;;;;33.50;14.43;;;;;;;2.59;100.00;99093.25;3914090;74;43717;-23
2021/03/24 01:42:27;;;;;;;36.30;16.30;;;;;;;2.63;100.00;99093.45;3911636;74;43420;-23
2021/03/24 01:47:34;;;;;;;33.43;16.63;;;;;;;2.65;100.00;99092.02;3918393;74;43419;-24
2021/03/24 01:52:40;;;;;;;32.40;15.10;;;;;;;2.65;100.00;99092.86;3901059;74;43693;-23
2021/03/24 01:57:46;;;;;;;34.97;16.27;;;;;;;2.60;100.00;99097.62;3905998;74;42968;-23
2021/03/24 02:02:52;;;;;;;34.87;15.37;;;;;;;2.62;100.00;99093.07;3910145;74;43473;-24
2021/03/24 02:08:01;;;;;;;34.77;15.17;;;;;;;2.60;100.00;99101.61;3924619;74;43700;-24
2021/03/24 02:13:11;;;;;;;33.40;15.60;;;;;;;2.51;100.00;99099.52;3920864;74;44983;-23
2021/03/24 02:18:20;;;;;;;30.50;14.50;;;;;;;2.51;100.00;99097.70;3920323;75;44062;-23
2021/03/24 02:23:31;;;;;;;34.17;15.83;;;;;;;2.55;100.00;99094.37;3921782;74;43689;-23
2021/03/24 02:28:39;;;;;;;33.40;15.43;;;;;;;2.54;100.00;99093.99;3898036;74;43564;-23
2021/03/24 02:33:48;;;;;;;34.47;15.40;;;;;;;2.59;100.00;99098.57;3893136;74;44082;-23
2021/03/24 02:38:57;;;;;;;35.47;15.87;;;;;;;2.57;100.00;99088.03;3908444;74;43116;-23
2021/03/24 02:44:04;;;;;;;33.70;15.63;;;;;;;2.62;100.00;99086.42;3897220;75;43685;-23
2021/03/24 02:49:12;;;;;;;33.33;15.47;;;;;;;2.67;100.00;99088.30;3882142;75;43603;-23
2021/03/24 02:54:21;;;;;;;31.83;15.90;;;;;;;2.71;100.00;99089.84;3881836;75;44077;-23
2021/03/24 02:59:28;;;;;;;30.80;15.03;;;;;;;2.76;100.00;99083.73;3888872;74;43677;-24
2021/03/24 03:04:37;;;;;;;34.27;16.17;;;;;;;2.80;100.00;99083.55;3825080;76;43678;-23
2021/03/24 03:09:48;;;;;;;33.73;15.40;;;;;;;2.82;100.00;99081.20;3880585;74;43682;-23
2021/03/24 03:14:59;;;;;;;29.17;14.50;;;;;;;2.84;100.00;99080.60;3880265;74;44454;-23
2021/03/24 03:20:12;;;;;;;33.07;15.87;;;;;;;2.88;100.00;99083.95;3908244;74;44048;-23
2021/03/24 03:25:21;;;;;;;36.23;16.10;;;;;;;2.92;100.00;99085.45;3877499;74;43653;-24
2021/03/24 03:30:29;;;;;;;31.97;15.23;;;;;;;2.96;100.00;99093.63;3851942;75;43351;-23
2021/03/24 03:35:38;;;;;;;34.93;15.93;;;;;;;2.99;100.00;99096.11;3857234;75;44065;-24
2021/03/24 03:40:45;;;;;;;31.30;15.50;;;;;;;2.99;100.00;99076.14;3868700;75;43682;-23
2021/03/24 03:45:54;;;;;;;28.17;14.50;;;;;;;3.01;100.00;99078.21;3843587;75;44043;-23
2021/03/24 03:51:03;;;;;;;33.23;15.80;;;;;;;3.02;100.00;99081.74;3851479;75;44066;-24
2021/03/24 03:56:13;;;;;;;31.37;15.53;;;;;;;3.02;100.00;99081.25;3858745;75;42944;-24
2021/03/24 04:01:23;;;;;;;34.63;16.47;;;;;;;3.02;100.00;99077.26;3863344;75;43417;-24
2021/03/24 04:06:32;;;;;;;32.37;16.30;;;;;;;3.07;100.00;99074.30;3867283;75;44030;-27
2021/03/24 04:11:44;;;;;;;33.90;15.83;;;;;;;3.06;100.00;99069.47;3866983;75;44256;-27
2021/03/24 04:16:51;;;;;;;34.93;17.03;;;;;;;3.04;100.00;99074.03;3864924;75;44370;-27
2021/03/24 04:22:00;;;;;;;33.60;15.43;;;;;;;3.01;100.00;99071.55;3861957;75;43714;-27
2021/03/24 04:27:10;;;;;;;33.30;15.80;;;;;;;3.02;100.00;99083.91;3867243;75;44791;-28
2021/03/24 04:32:18;;;;;;;34.23;16.50;;;;;;;3.01;100.00;99085.36;3874055;75;44122;-27
2021/03/24 04:37:28;;;;;;;34.07;15.53;;;;;;;3.00;100.00;99084.97;3862137;75;43433;-27
2021/03/24 04:42:40;;;;;;;31.77;16.10;;;;;;;3.00;100.00;99091.14;3856060;75;43364;-27
2021/03/24 04:47:49;;;;;;;35.13;15.80;;;;;;;2.97;100.00;99084.70;3862624;75;44388;-27
2021/03/24 04:52:58;;;;;;;33.20;15.67;;;;;;;2.97;100.00;99094.47;3855344;75;43262;-27
2021/03/24 04:58:09;;;;;;;35.37;16.90;;;;;;;2.95;100.00;99095.91;3862002;75;43408;-28
2021/03/24 05:03:19;;;;;;;33.40;17.10;;;;;;;2.91;100.00;99096.59;3864687;75;43971;-27
2021/03/24 05:08:30;;;;;;;37.13;16.63;;;;;;;2.92;100.00;99094.77;3876776;75;44014;-27
2021/03/24 05:13:40;;;;;;;34.27;16.50;;;;;;;2.89;100.00;99094.48;3862197;75;43359;-27
2021/03/24 05:18:53;;;;;;;35.93;16.33;;;;;;;2.87;100.00;99100.88;3863458;75;44079;-27
2021/03/24 05:24:02;;;;;;;34.43;16.53;;;;;;;2.83;100.00;99103.33;3844000;75;44069;-27
2021/03/24 05:29:11;;;;;;;34.73;16.10;;;;;;;2.77;100.00;99104.08;3885710;74;42964;-28
2021/03/24 05:34:20;;;;;;;36.37;16.30;;;;;;;2.75;100.00;99111.78;3905478;75;43669;-27
2021/03/24 05:39:29;;;;;;;35.77;17.07;;;;;;;2.74;100.00;99110.94;3904796;75;45399;-27
2021/03/24 05:44:53;;;;;;;38.60;17.50;;;;;;;2.69;100.00;99107.69;3891858;75;44011;-27
2021/03/24 05:50:06;;;;;;;36.17;16.87;;;;;;;2.67;100.00;99109.59;3888288;74;44414;-26
2021/03/24 05:55:34;;;;;;;40.00;19.47;;;;;;;2.62;100.00;99111.69;3895507;74;43706;-26
2021/03/24 06:00:43;;;;;;;39.43;18.77;;;;;;;2.57;100.00;99109.77;3899057;74;44058;-27
2021/03/24 06:06:07;;;;;;;40.40;18.83;;;;;;;2.55;100.00;99115.66;3902179;74;44184;-27
2021/03/24 06:11:35;;;;;;;41.63;18.83;;;;;;;2.58;100.00;99108.83;3896566;75;44161;-26
2021/03/24 06:17:09;;;;;;;38.50;19.07;;;;;;;2.59;100.00;99114.53;3747645;78;43836;-27
2021/03/24 06:22:22;;;;;;;40.00;18.43;;;;;;;2.59;100.00;99111.38;3896971;75;43590;-27
2021/03/24 06:27:38;;;;;;;40.47;18.50;;;;;;;2.60;100.00;99108.27;3919718;74;44042;-27
2021/03/24 06:32:55;;;;;;;35.40;16.40;;;;;;;2.64;100.00;99114.25;3920730;75;44015;-26
2021/03/24 06:38:33;;;;;;;32.47;16.33;;;;;;;2.69;100.00;99118.34;3916745;74;44073;-26
2021/03/24 06:43:53;;;;;;;37.60;17.80;;;;;;;2.75;100.00;99123.76;3898248;74;44056;-26
2021/03/24 06:49:31;;;;;;;43.13;19.13;;;;;;;2.83;100.00;99117.48;3916419;75;43751;-26
2021/03/24 06:55:09;;;;;;;40.77;19.33;;;;;;;2.94;100.00;99124.81;3781667;78;44460;-26
2021/03/24 07:00:41;;;;;;;37.23;18.47;;;;;;;3.07;100.00;99127.09;3920179;74;44070;-26
2021/03/24 07:06:14;;;;;;;40.00;19.10;;;;;;;3.26;100.00;99134.39;3921888;74;43467;-27
2021/03/24 07:11:30;;;;;;;37.43;18.43;;;;;;;3.44;100.00;99149.69;3925937;74;43567;-27
2021/03/24 07:16:59;;;;;;;40.33;18.43;;;;;;;3.61;100.00;99137.94;3915467;74;43778;-27
2021/03/24 07:22:29;;;;;;;33.63;16.83;;;;;;;3.79;100.00;99145.22;3912071;75;43323;-27
2021/03/24 07:27:43;;;;;;;35.70;17.10;;;;;;;3.98;100.00;99153.70;3912037;75;43358;-26
2021/03/24 07:32:52;;;;;;;41.87;18.13;;;;;;;4.12;100.00;99151.94;3885477;74;43369;-27
2021/03/24 07:38:39;;;;;;;39.07;17.53;;;;;;;4.27;100.00;99150.05;3883473;74;43685;-27
2021/03/24 07:44:01;;;;;;;35.90;18.00;;;;;;;4.44;100.00;99143.58;3873931;75;43729;-27
2021/03/24 07:49:42;;;;;;;32.57;17.03;;;;;;;4.66;100.00;99150.10;3880222;74;43355;-26
2021/03/24 07:54:52;;;;;;;34.77;17.80;;;;;;;4.89;100.00;99157.38;3862180;74;43448;-26
2021/03/24 08:00:03;;;;;;;33.73;16.70;;;;;;;5.14;100.00;99155.66;3873168;76;43632;-27
2021/03/24 08:05:33;;;;;;;32.40;17.17;;;;;;;5.29;100.00;99156.41;3872404;76;43708;-27
2021/03/24 08:10:44;;;;;;;38.23;18.27;;;;;;;5.43;100.00;99163.42;3871339;74;44432;-27
2021/03/24 08:16:10;;;;;;;34.23;17.27;;;;;;;5.68;100.00;99157.64;3879153;75;44037;-31
2021/03/24 08:21:19;;;;;;;32.67;16.97;;;;;;;5.85;100.00;99155.06;3870479;74;43673;-31
2021/03/24 08:26:29;;;;;;;35.10;18.13;;;;;;;5.99;100.00;99151.36;3883510;74;43718;-27
2021/03/24 08:32:00;;;;;;;34.63;17.87;;;;;;;6.22;100.00;99155.04;3856804;76;44076;-27
2021/03/24 08:37:38;;;;;;;38.03;17.77;;;;;;;6.41;100.00;99145.11;3863428;76;44457;-27
2021/03/24 08:43:20;;;;;;;38.70;18.47;;;;;;;6.71;100.00;99145.08;3851824;75;44054;-27
2021/03/24 08:48:34;;;;;;;40.00;19.10;;;;;;;6.91;100.00;99141.32;3863921;75;43436;-27
2021/03/24 08:53:45;;;;;;;35.67;19.33;;;;;;;7.26;100.00;99144.38;3866156;75;43335;-27
2021/03/24 08:58:54;;;;;;;32.93;18.37;;;;;;;7.57;97.65;99141.94;3864469;75;45018;-27
2021/03/24 09:04:37;;;;;;;33.57;18.77;;;;;;;7.48;97.05;99135.95;3866818;75;44087;-27
2021/03/24 09:09:51;;;;;;;34.73;19.87;;;;;;;7.65;94.18;99131.90;3849949;76;77410;-32
2021/03/24 09:15:00;;;;;;;37.77;19.83;;;;;;;7.87;95.35;99132.34;3868080;75;43810;-32
2021/03/24 09:20:42;;;;;;;37.05;20.05;;;;;;;7.83;95.27;99132.22;3855968;75;77824;-32
2021/03/24 09:25:52;;;;;;;39.60;20.20;;;;;;;7.99;93.43;99127.30;3864805;75;43048;-32
2021/03/24 09:31:16;;;;;;;38.43;19.70;;;;;;;8.16;96.86;99126.41;3911151;74;73223;-32
2021/03/24 09:37:01;;;;;;;35.47;19.10;;;;;;;8.39;95.84;99115.55;3922104;74;43718;-32
2021/03/24 09:42:14;;;;;;;36.37;20.33;;;;;;;8.48;92.51;99116.14;3932218;75;43721;-32
2021/03/24 09:47:28;;;;;;;36.17;20.60;;;;;;;8.59;92.57;99108.02;3914370;74;44195;-32
2021/03/24 09:52:38;;;;;;;35.47;19.97;;;;;;;8.63;94.34;99102.75;3916712;74;43994;-32
2021/03/24 09:58:05;;;;;;;38.60;21.42;;;;;;;8.90;95.06;99087.05;3926703;74;43698;-29
2021/03/24 10:03:17;;;;;;;38.07;21.37;;;;;;;9.32;89.37;99092.80;3906278;75;73924;-29
2021/03/24 10:08:27;;;;;;;39.00;21.35;;;;;;;9.27;90.80;99091.87;3923364;74;43457;-29
2021/03/24 10:13:36;;;;;;;40.67;21.87;;;;;;;9.43;88.15;99080.59;3926708;74;44132;-29
2021/03/24 10:18:47;;;;;;;38.67;22.27;;;;;;;9.52;83.88;99085.13;3921566;75;44011;-29
2021/03/24 10:23:57;;;;;;;35.78;21.27;;;;;;;9.54;87.95;99069.71;3925811;74;43308;-29
2021/03/24 10:29:06;;;;;;;43.58;22.75;;;;;;;9.85;85.00;99062.03;3926534;74;44117;-29
2021/03/24 10:34:15;;;;;;;37.35;21.55;;;;;;;9.91;80.95;99059.27;3932580;75;44416;-29
2021/03/24 10:39:26;;;;;;;35.10;21.23;;;;;;;10.01;82.63;99048.01;3953435;75;44058;-29
2021/03/24 10:44:54;;;;;;;33.98;20.65;;;;;;;10.16;77.20;99037.64;3927611;74;44042;-30
2021/03/24 10:50:21;;;;;;;37.98;22.02;;;;;;;10.30;82.90;99034.99;3930533;74;44323;-26
2021/03/24 10:55:29;;;;;;;35.68;20.95;;;;;;;10.44;76.63;99037.78;3938815;75;43437;-27
2021/03/24 11:00:38;;;;;;;35.48;21.40;;;;;;;10.50;74.99;99034.49;3934391;74;43392;-26
2021/03/24 11:05:47;;;;;;;32.93;20.57;;;;;;;10.61;76.78;99022.70;3932536;74;43714;-26
2021/03/24 11:10:57;;;;;;;35.20;21.10;;;;;;;10.85;74.68;99015.95;3911589;75;44096;-26
2021/03/24 11:16:15;;;;;;;33.28;21.48;;;;;;;11.07;76.91;99020.95;3920730;74;43649;-24
2021/03/24 11:21:40;;;;;;;34.73;21.77;;;;;;;10.90;74.64;99006.91;3921545;74;44731;-24
2021/03/24 11:27:13;;;;;;;39.45;21.75;;;;;;;11.16;71.86;99002.16;3942920;75;43825;-24
2021/03/24 11:32:31;;;;;;;33.40;21.40;;;;;;;11.28;72.39;98996.08;3883940;75;43247;-25
2021/03/24 11:37:44;;;;;;;35.58;21.60;;;;;;;10.95;70.60;98985.23;3899042;74;43339;-26
2021/03/24 11:42:57;;;;;;;35.68;19.87;;;;;;;11.10;76.08;98989.65;3901053;75;44353;-24
2021/03/24 11:48:16;;;;;;;34.23;20.85;;;;;;;11.30;69.28;98990.87;3901484;75;43320;-26
2021/03/24 11:53:26;;;;;;;32.88;20.55;;;;;;;11.47;68.64;98991.89;3891611;74;77393;-25
2021/03/24 11:58:40;;;;;;;31.20;20.23;;;;;;;11.52;75.01;98988.24;3898599;74;43421;-25
2021/03/24 12:04:03;;;;;;;31.30;19.48;;;;;;;11.41;75.00;98974.46;3899063;75;43399;-26
2021/03/24 12:09:12;;;;;;;32.73;20.48;;;;;;;11.44;74.62;98962.51;3891926;74;43344;-26
2021/03/24 12:14:22;;;;;;;32.20;18.05;;;;;;;11.64;72.60;98964.55;3910364;74;43714;-38
2021/03/24 12:19:37;;;;;;;31.77;19.60;;;;;;;11.90;70.63;98947.57;3888283;75;43456;-27
2021/03/24 12:24:46;;;;;;;32.53;20.32;;;;;;;12.22;69.05;98943.42;3890102;74;43473;-25
2021/03/24 12:30:01;;;;;;;28.80;20.20;;;;;;;12.38;71.01;98935.09;3884010;74;44050;-26
2021/03/24 12:35:14;;;;;;;32.58;19.37;;;;;;;12.57;66.16;98928.60;3861632;75;43351;-25
2021/03/24 12:40:23;;;;;;;30.05;19.73;;;;;;;13.06;62.27;98922.52;3856113;75;43133;-26
2021/03/24 12:45:38;;;;;;;28.32;18.73;;;;;;;12.91;67.33;98916.38;3857468;75;44005;-24
2021/03/24 12:50:52;;;;;;;28.65;18.50;;;;;;;12.92;67.56;98911.31;3855669;75;43994;-25
2021/03/24 12:56:20;;;;;;;30.82;19.20;;;;;;;13.15;67.03;98901.75;3849702;75;43990;-25
2021/03/24 13:01:36;;;;;;;28.07;17.77;;;;;;;13.21;62.29;98897.88;3851148;75;43722;-25
2021/03/24 13:06:55;;;;;;;27.07;17.17;;;;;;;13.60;60.60;98895.05;3869217;75;43711;-25
2021/03/24 13:12:05;;;;;;;28.10;16.97;;;;;;;14.17;58.33;98876.52;3863068;74;44458;-25
2021/03/24 13:17:17;;;;;;;25.27;16.60;;;;;;;14.41;59.06;98877.45;3862086;75;43127;-25
2021/03/24 13:22:26;;;;;;;27.52;17.20;;;;;;;14.54;58.72;98867.42;3860991;75;43517;-25
2021/03/24 13:27:40;;;;;;;23.98;15.85;;;;;;;14.51;56.71;98858.81;3868115;75;43692;-25
2021/03/24 13:32:50;;;;;;;25.48;16.35;;;;;;;14.86;53.79;98852.56;3862245;75;43205;-25
2021/03/24 13:37:57;;;;;;;23.52;15.95;;;;;;;14.91;55.56;98848.29;3865943;75;43685;-25
2021/03/24 13:43:07;;;;;;;22.27;15.23;;;;;;;14.85;57.48;98851.70;3857776;75;44015;-25
2021/03/24 13:48:18;;;;;;;22.52;15.35;;;;;;;15.56;51.26;98849.34;3853684;75;43440;-30
2021/03/24 13:53:29;;;;;;;22.20;14.53;;;;;;;15.24;54.73;98840.42;3847456;75;44622;-30
2021/03/24 13:59:05;;;;;;;22.55;15.08;;;;;;;15.47;50.13;98839.55;3853207;75;43721;-30
2021/03/24 14:04:24;;;;;;;19.87;12.68;;;;;;;15.64;49.66;98827.53;3861552;75;45285;-30
2021/03/24 14:09:34;;;;;;;22.82;14.33;;;;;;;15.59;50.16;98828.59;3865905;75;43183;-30
2021/03/24 14:14:51;;;;;;;20.82;14.33;;;;;;;15.79;47.50;98820.77;3864217;75;43389;-30
2021/03/24 14:20:00;;;;;;;23.35;13.28;;;;;;;15.93;49.91;98820.50;3855507;74;43098;-30
2021/03/24 14:25:20;;;;;;;17.87;13.10;;;;;;;16.96;49.02;98808.83;3859358;75;43122;-30
2021/03/24 14:30:33;;;;;;;20.43;14.25;;;;;;;15.91;46.80;98811.69;3852844;75;44483;-32
2021/03/24 14:35:48;;;;;;;20.50;13.65;;;;;;;15.95;45.58;98808.91;3868225;75;43382;-32
2021/03/24 14:41:05;;;;;;;20.15;13.13;;;;;;;16.23;46.17;98794.67;3893967;76;44021;-30
2021/03/24 14:46:20;;;;;;;19.50;13.38;;;;;;;16.09;46.68;98802.31;3881350;74;43022;-30
2021/03/24 14:51:36;;;;;;;21.42;14.20;;;;;;;16.09;45.47;98795.02;3867666;74;43162;-30
2021/03/24 14:56:45;;;;;;;20.27;13.35;;;;;;;15.69;43.53;98791.17;3862230;75;43579;-30
2021/03/24 15:01:51;;;;;;;19.73;13.10;;;;;;;15.84;43.95;98783.52;3871582;74;43095;-30
2021/03/24 15:07:01;;;;;;;19.42;11.78;;;;;;;16.22;43.85;98771.77;3878423;76;43779;-32
2021/03/24 15:12:17;;;;;;;19.65;12.35;;;;;;;16.04;41.78;98783.02;3856763;75;43427;-27
2021/03/24 15:17:33;;;;;;;17.35;11.85;;;;;;;15.99;43.65;98769.47;3874790;76;44015;-27
2021/03/24 15:22:46;;;;;;;19.40;12.58;;;;;;;16.24;43.48;98767.81;3860143;74;43457;-26
2021/03/24 15:27:57;;;;;;;22.15;13.72;;;;;;;16.73;46.13;98764.92;3872479;74;43686;-26
2021/03/24 15:33:08;;;;;;;21.00;13.30;;;;;;;16.61;45.49;98771.40;3867042;74;43589;-27
2021/03/24 15:38:34;;;;;;;26.33;15.70;;;;;;;16.54;45.56;98762.83;3863734;74;43686;-27
2021/03/24 15:44:04;;;;;;;26.45;17.17;;;;;;;16.53;45.45;98773.38;3870886;76;44212;-25
2021/03/24 15:49:15;;;;;;;24.02;15.93;;;;;;;15.88;47.28;98759.07;3882996;75;43690;-26
2021/03/24 15:54:31;;;;;;;24.55;16.30;;;;;;;15.96;45.95;98752.17;3877734;75;43673;-26
2021/03/24 16:00:07;;;;;;;24.37;15.48;;;;;;;15.88;46.47;98758.24;3868923;74;43231;-26
2021/03/24 16:05:26;;;;;;;25.40;16.25;;;;;;;15.99;44.53;98757.23;3877308;74;43462;-26
2021/03/24 16:10:36;;;;;;;23.42;15.68;;;;;;;15.82;46.47;98766.56;3589299;76;42729;-26
2021/03/24 16:16:05;;;;;;;25.08;15.78;;;;;;;15.52;48.95;98755.69;3570840;82;44431;-27
2021/03/24 16:21:31;;;;;;;24.30;15.38;;;;;;;15.60;46.35;98758.31;3569691;83;43717;-28
2021/03/24 16:27:26;;;;;;;22.98;14.55;;;;;;;16.01;46.77;98762.48;3573550;82;44096;-26
2021/03/24 16:33:14;;;;;;;26.25;15.95;;;;;;;16.21;46.87;98763.28;3591505;81;44126;-25
2021/03/24 16:38:51;;;;;;;29.92;18.35;;;;;;;16.14;46.42;98757.75;3596816;81;42989;-25
2021/03/24 16:44:19;;;;;;;27.17;16.73;;;;;;;16.05;48.34;98757.53;3603964;80;43068;-25
2021/03/24 16:49:58;;;;;;;28.38;17.52;;;;;;;15.57;48.93;98757.34;3613111;81;43321;-25
2021/03/24 16:55:09;;;;;;;27.75;16.87;;;;;;;15.71;48.37;98761.09;3606025;80;44046;-25
2021/03/24 17:00:19;;;;;;;28.35;15.48;;;;;;;15.60;49.80;98762.38;3607191;81;43686;-25
2021/03/24 17:05:28;;;;;;;26.07;15.83;;;;;;;15.23;49.27;98757.30;3610001;80;43380;-26
2021/03/24 17:11:00;;;;;;;26.80;14.70;;;;;;;15.10;49.94;98752.00;3611199;80;43709;-25
2021/03/24 17:16:12;;;;;;;24.55;14.47;;;;;;;14.91;48.93;98760.62;3604716;80;44545;-25
2021/03/24 17:21:23;;;;;;;25.00;13.10;;;;;;;14.45;48.84;98758.70;3608553;80;43352;-26
2021/03/24 17:26:31;;;;;;;25.85;13.65;;;;;;;14.33;51.18;98765.02;3607837;80;43693;-25
2021/03/24 17:31:38;;;;;;;27.93;16.67;;;;;;;14.02;51.16;98767.19;3521631;83;43346;-26
2021/03/24 17:37:00;;;;;;;27.35;16.40;;;;;;;13.77;53.61;98762.34;3590268;81;43462;-25
2021/03/24 17:42:10;;;;;;;28.95;17.12;;;;;;;13.55;52.84;98769.69;3584437;81;44051;-25
2021/03/24 17:47:23;;;;;;;24.75;15.75;;;;;;;13.44;54.71;98767.34;3584732;81;43380;-25
2021/03/24 17:52:44;;;;;;;28.80;16.50;;;;;;;13.21;54.91;98769.84;3583351;81;43364;-25
2021/03/24 17:57:56;;;;;;;31.35;16.95;;;;;;;13.00;56.03;98774.41;3584335;81;43698;-26
2021/03/24 18:03:21;;;;;;;26.70;15.65;;;;;;;12.73;56.26;98776.42;3582318;80;44085;-28
2021/03/24 18:08:34;;;;;;;29.48;15.15;;;;;;;12.45;57.09;98780.25;3586003;82;43694;-26
2021/03/24 18:13:41;;;;;;;28.20;16.37;;;;;;;12.37;57.36;98778.86;3585140;81;43685;-26
2021/03/24 18:18:47;;;;;;;29.37;16.35;;;;;;;12.22;57.99;98781.34;3580555;81;43705;-27
2021/03/24 18:23:58;;;;;;;28.52;15.75;;;;;;;12.04;57.81;98788.19;3590998;81;44006;-27
2021/03/24 18:29:08;;;;;;;28.25;15.20;;;;;;;11.83;59.71;98779.10;3599777;81;44064;-27
2021/03/24 18:34:18;;;;;;;24.87;14.35;;;;;;;11.36;62.95;98781.69;3709504;79;44102;-25
2021/03/24 18:39:31;;;;;;;27.50;15.40;;;;;;;10.94;64.84;98776.47;3673105;79;44014;-25
2021/03/24 18:44:42;;;;;;;26.42;15.15;;;;;;;10.79;64.86;98777.00;3697089;79;43273;-27
2021/03/24 18:49:50;;;;;;;29.15;16.35;;;;;;;10.71;66.47;98776.94;3708401;79;43287;-26
2021/03/24 18:55:22;;;;;;;29.45;16.32;;;;;;;10.41;67.12;98774.09;3675744;79;44432;-26
2021/03/24 19:00:33;;;;;;;31.00;15.65;;;;;;;10.06;69.74;98771.12;3707160;78;44065;-26
2021/03/24 19:05:41;;;;;;;26.12;15.00;;;;;;;9.80;70.58;98773.17;3705070;79;44588;-25
2021/03/24 19:11:03;;;;;;;67.37;26.45;;;;;;;9.84;70.39;98771.86;3703405;79;44360;-25
2021/03/24 19:16:29;;;;;;;26.30;14.07;;;;;;;9.79;69.99;98772.83;3706442;78;42787;-25
2021/03/24 19:21:43;;;;;;;25.37;13.43;;;;;;;9.71;70.08;98776.73;3700545;79;43057;-25
2021/03/24 19:27:03;;;;;;;26.00;13.58;;;;;;;9.60;69.93;98780.94;3703296;79;43740;-25
2021/03/24 19:32:36;;;;;;;25.32;13.72;;;;;;;9.52;70.29;98783.88;3705765;79;43989;-25
2021/03/24 19:37:43;;;;;;;19.67;11.43;;;;;;;9.43;70.19;98778.51;3705580;79;44013;-25
2021/03/24 19:42:53;;;;;;;19.67;11.43;;;;;;;9.31;71.55;98783.22;3721131;79;45738;-25
2021/03/24 19:48:07;;;;;;;22.23;13.40;;;;;;;9.19;72.14;98783.38;3726870;78;43329;-25
2021/03/24 19:53:16;;;;;;;23.83;13.93;;;;;;;9.04;72.95;98777.60;3718225;79;43704;-25
2021/03/24 19:58:26;;;;;;;22.50;13.30;;;;;;;8.89;72.59;98780.36;3714795;79;43724;-24
2021/03/24 20:03:42;;;;;;;25.57;15.15;;;;;;;8.76;71.04;98780.14;3713403;78;42865;-25
2021/03/24 20:09:17;;;;;;;22.17;13.60;;;;;;;8.66;72.05;98779.77;3718976;78;44661;-24
2021/03/24 20:14:27;;;;;;;20.15;12.63;;;;;;;8.58;73.73;98782.67;3720702;79;44075;-25
2021/03/24 20:19:37;;;;;;;22.87;13.15;;;;;;;8.43;74.89;98776.83;3716131;78;42940;-25
2021/03/24 20:24:44;;;;;;;22.17;12.57;;;;;;;8.30;75.75;98781.61;3709553;79;44083;-25
2021/03/24 20:29:51;;;;;;;23.40;12.60;;;;;;;8.21;75.80;98788.64;3704495;78;43160;-24
2021/03/24 20:35:05;;;;;;;19.70;12.45;;;;;;;8.12;76.55;98786.78;3707211;79;44050;-26
2021/03/24 20:40:18;;;;;;;19.62;12.40;;;;;;;7.93;78.33;98788.91;3719594;79;44003;-25
2021/03/24 20:45:33;;;;;;;23.05;12.73;;;;;;;7.85;78.62;98792.26;3702214;78;42786;-25
2021/03/24 20:50:40;;;;;;;21.50;12.47;;;;;;;7.68;79.86;98793.27;3708922;78;43553;-25
2021/03/24 20:55:48;;;;;;;20.33;11.67;;;;;;;7.60;80.42;98795.73;3719085;79;44047;-25
2021/03/24 21:00:56;;;;;;;20.70;12.00;;;;;;;7.49;81.00;98788.64;3701203;79;44042;-25
2021/03/24 21:06:03;;;;;;;19.35;11.78;;;;;;;7.39;81.36;98787.23;3712612;79;43441;-25
2021/03/24 21:11:11;;;;;;;21.30;12.53;;;;;;;7.35;81.49;98786.30;3713868;79;44086;-25
2021/03/24 21:16:19;;;;;;;23.20;11.33;;;;;;;7.27;81.56;98787.45;3726973;79;44003;-27
2021/03/24 21:21:29;;;;;;;19.02;11.97;;;;;;;7.15;81.80;98791.53;3717490;79;77774;-27
2021/03/24 21:26:37;;;;;;;22.37;12.03;;;;;;;7.05;82.51;98786.09;3708935;79;73635;-27
2021/03/24 21:31:43;;;;;;;20.53;11.80;;;;;;;6.92;83.49;98775.58;3701958;78;77746;-25
2021/03/24 21:36:49;;;;;;;20.13;11.23;;;;;;;6.91;83.84;98780.58;3672853;79;42962;-25
2021/03/24 21:41:56;;;;;;;16.53;10.20;;;;;;;6.84;84.55;98778.03;3691607;79;43686;-26
2021/03/24 21:47:04;;;;;;;20.73;11.87;;;;;;;6.81;84.47;98779.66;3701872;78;44087;-25
2021/03/24 21:52:14;;;;;;;18.77;11.37;;;;;;;6.73;84.60;98772.73;3679434;79;43440;-25
2021/03/24 21:57:53;;;;;;;22.17;12.37;;;;;;;6.66;84.57;98767.03;3700492;79;43464;-25
2021/03/24 22:03:11;;;;;;;19.10;10.93;;;;;;;6.56;85.35;98768.30;3700354;78;42906;-25
2021/03/24 22:08:18;;;;;;;19.37;11.90;;;;;;;6.49;85.72;98772.45;3690342;79;43075;-25
2021/03/24 22:13:29;;;;;;;20.10;12.07;;;;;;;6.43;85.62;98770.30;3690116;79;43374;-25
2021/03/24 22:18:38;;;;;;;20.63;12.73;;;;;;;6.35;86.13;98761.55;3565406;82;44029;-25
2021/03/24 22:23:44;;;;;;;21.07;12.27;;;;;;;6.31;86.55;98760.09;3617657;81;43709;-25
2021/03/24 22:28:53;;;;;;;22.90;13.00;;;;;;;6.27;87.02;98763.52;3613210;81;43686;-25
2021/03/24 22:34:03;;;;;;;20.90;11.47;;;;;;;6.13;88.42;98757.95;3615050;81;44045;-25
2021/03/24 22:39:15;;;;;;;23.30;12.60;;;;;;;6.07;88.58;98753.59;3722335;79;44098;-25
2021/03/24 22:44:25;;;;;;;22.73;12.60;;;;;;;5.88;90.22;98749.67;3716193;79;44050;-25
2021/03/24 22:49:34;;;;;;;23.53;13.30;;;;;;;5.83;91.18;98755.39;3713140;79;43529;-25
2021/03/24 22:54:40;;;;;;;23.38;13.18;;;;;;;5.81;90.69;98754.70;3701683;78;74262;-25
2021/03/24 22:59:47;;;;;;;24.07;12.70;;;;;;;5.75;90.69;98756.50;3711869;79;44053;-25
2021/03/24 23:04:53;;;;;;;22.83;12.87;;;;;;;5.67;91.04;98753.60;3709055;79;44711;-25
2021/03/24 23:10:02;;;;;;;22.67;12.37;;;;;;;5.63;91.39;98744.12;3714165;79;44069;-25
2021/03/24 23:15:11;;;;;;;23.40;13.10;;;;;;;5.54;91.96;98744.35;3706587;79;44530;-26
2021/03/24 23:20:21;;;;;;;26.90;12.90;;;;;;;5.42;92.66;98739.50;3725776;79;43982;-25
2021/03/24 23:25:30;;;;;;;21.43;13.00;;;;;;;5.38;93.36;98735.36;3709041;79;44114;-25
2021/03/24 23:30:39;;;;;;;23.70;13.03;;;;;;;5.30;94.88;98731.11;3696614;79;44081;-25
2021/03/24 23:35:45;;;;;;;22.43;12.87;;;;;;;5.27;95.81;98726.00;3705521;79;44423;-25
2021/03/24 23:40:51;;;;;;;25.10;13.23;;;;;;;5.23;96.09;98731.58;3704718;79;44059;-25
2021/03/24 23:45:58;;;;;;;23.27;13.10;;;;;;;5.19;95.97;98726.13;3702397;79;43322;-25
2021/03/24 23:51:07;;;;;;;26.33;12.90;;;;;;;5.16;95.79;98718.84;3707459;79;43999;-25
2021/03/24 23:56:21;;;;;;;22.13;12.73;;;;;;;5.05;97.63;98720.53;3708663;79;44141;-25
